Latest Weather Observations for Esperance Airport

IDW60801

Issued at 4:04 pm WST Sunday 22 October 2017 (issued every 30 minutes, with the page automatically refreshed every 10 minutes)

About weather observations | Map of weather stations | Latest weather observations for WA | Other Formats
Station Details ID: 009542 Name: ESPERANCE AERO Lat: -33.68 Lon: 121.83 Height: 142.0 m
Data from the previous 72 hours. | See also: Recent months at Esperance Airport
Date/Time
WST
Temp
°C
App
Temp
°C
Dew
Point
°C
Rel
Hum
%
Delta-T
°C
Wind Press
QNH
hPa
Press
MSL
hPa
Rain since
9am
mm
Dir  Spd
km/h
Gust
km/h
Spd
kts
Gust
kts
22/04:00pm 16.0 12.6 13.8 87 1.2 NE 24 39 13 21 1012.2 1012.0 12.4
22/03:30pm 15.6 12.7 14.0 90 0.9 NE 22 35 12 19 1012.1 1011.9 12.4
22/03:14pm 15.8 13.4 14.5 92 0.7 ENE 20 32 11 17 1012.3 1012.1 12.4
22/03:13pm 15.9 13.8 14.6 92 0.7 NE 19 30 10 16 1012.5 1012.3 12.4
22/03:00pm 15.9 14.5 14.6 92 0.7 NE 15 24 8 13 1014.5 1014.3 12.0
22/02:30pm 15.5 13.0 14.2 92 0.7 ENE 20 28 11 15 1014.2 1014.0 11.8
22/02:04pm 15.7 14.3 14.4 92 0.7 E 15 20 8 11 1014.8 1014.7 11.8
22/02:00pm 15.6 14.5 14.3 92 0.7 ESE 13 17 7 9 1015.2 1015.1 11.8
22/01:54pm 15.7 14.6 14.4 92 0.7 ESE 13 15 7 8 1015.7 1015.6 11.8
22/01:39pm 15.2 16.4 13.7 91 0.8 CALM 0 6 0 3 1016.9 1016.7 11.6
22/01:30pm 15.0 14.4 13.5 91 0.8 SSW 9 11 5 6 1017.2 1017.0 11.0
22/01:00pm 15.6 11.4 13.4 87 1.2 W 28 37 15 20 1018.1 1017.9 7.0
22/12:56pm 16.0 13.0 13.7 86 1.3 WSW 22 35 12 19 1017.9 1017.7 5.8
22/12:52pm 16.4 15.2 13.9 85 1.4 WSW 13 28 7 15 1017.3 1017.1 5.8
22/12:50pm 16.4 15.6 13.9 85 1.4 ENE 11 20 6 11 1017.0 1016.8 5.8
22/12:30pm 16.2 14.9 13.7 85 1.4 E 13 20 7 11 1014.9 1014.8 5.8
22/12:13pm 16.2 15.0 13.9 86 1.3 SSE 13 32 7 17 1015.8 1015.7 5.8
22/12:00pm 16.1 12.4 13.9 87 1.3 ESE 26 35 14 19 1013.7 1013.5 5.8
22/11:30am 16.4 12.9 14.4 88 1.1 E 26 39 14 21 1014.0 1013.8 5.8
22/11:12am 15.4 11.7 13.9 91 0.9 E 26 39 14 21 1014.9 1014.8 5.8
22/11:00am 15.0 11.6 13.7 92 0.7 E 24 37 13 20 1015.4 1015.3 5.8
22/10:30am 14.0 10.4 12.9 93 0.6 E 24 35 13 19 1016.5 1016.3 5.8
22/10:28am 13.9 10.2 12.8 93 0.6 E 24 35 13 19 1016.6 1016.4 5.8
22/10:25am 13.7 10.0 12.6 93 0.6 E 24 35 13 19 1016.8 1016.6 5.8
22/10:00am 13.6 10.5 12.3 92 0.7 E 20 28 11 15 1018.8 1018.6 4.6
22/09:53am 13.6 10.7 12.3 92 0.7 E 19 26 10 14 1019.0 1018.8 4.0
22/09:30am 14.2 12.6 12.8 91 0.8 ESE 13 17 7 9 1021.0 1020.9 2.2
22/09:29am 14.2 12.6 12.8 91 0.8 ESE 13 17 7 9 1021.0 1020.9 2.0
22/09:26am 14.3 12.7 12.9 91 0.8 ESE 13 17 7 9 1020.9 1020.8 2.0
22/09:00am 14.6 14.7 12.8 89 1.0 NE 4 7 2 4 1022.0 1021.9 3.2
22/08:44am 14.6 14.1 12.8 89 1.0 SE 7 11 4 6 1021.5 1021.4 1.6
22/08:30am 14.5 13.6 12.7 89 1.0 ESE 9 11 5 6 1021.0 1020.9 1.2
22/08:00am 14.3 13.8 12.5 89 1.0 ESE 7 11 4 6 1021.2 1021.1 0.8
22/07:30am 14.3 13.9 12.3 88 1.1 SSE 6 9 3 5 1021.5 1021.4 0.4
22/07:00am 14.0 13.3 12.0 88 1.1 E 7 9 4 5 1020.8 1020.7 0.4
22/06:30am 13.7 13.1 11.8 88 1.0 SW 6 7 3 4 1021.1 1021.0 0.4
22/06:00am 14.1 10.9 11.8 86 1.2 SW 20 28 11 15 1020.9 1020.8 0.2
22/05:30am 14.2 13.4 11.2 82 1.6 SE 6 9 3 5 1019.8 1019.6 0.0
22/05:00am 14.7 13.6 10.5 76 2.2 NNE 7 11 4 6 1019.5 1019.3 0.0
22/04:30am 15.0 13.0 10.2 73 2.5 ENE 11 19 6 10 1018.7 1018.5 0.0
22/04:00am 15.3 12.1 10.1 71 2.7 NE 17 32 9 17 1018.3 1018.1 0.0
22/03:30am 15.3 11.6 10.1 71 2.7 NE 20 33 11 18 1018.6 1018.4 0.0
22/03:00am 15.4 11.9 10.2 71 2.7 NNE 19 26 10 14 1018.8 1018.6 0.0
22/02:30am 15.4 11.8 10.0 70 2.8 NE 19 28 10 15 1018.2 1018.0 0.0
22/02:00am 15.5 11.8 10.1 70 2.8 NE 20 33 11 18 1018.8 1018.6 0.0
22/01:30am 15.5 11.7 9.8 69 3.0 NE 20 28 11 15 1019.3 1019.1 0.0
22/01:00am 15.5 11.7 9.8 69 3.0 NE 20 32 11 17 1019.6 1019.4 0.0
22/12:30am 15.5 11.6 9.6 68 3.1 NE 20 33 11 18 1019.9 1019.7 0.0
22/12:00am 15.3 11.5 9.7 69 2.9 NE 20 32 11 17 1019.8 1019.6 0.0
 
Date/Time
WST
Temp
°C
App
Temp
°C
Dew
Point
°C
Rel
Hum
%
Delta-T
°C
Wind Press
QNH
hPa
Press
MSL
hPa
Rain since
9am
mm
Dir  Spd
km/h
Gust
km/h
Spd
kts
Gust
kts
21/11:30pm 15.2 11.4 9.8 70 2.8 NE 20 37 11 20 1020.3 1020.1 0.0
21/11:00pm 15.3 11.4 9.4 68 3.1 ENE 20 33 11 18 1020.5 1020.3 0.0
21/10:30pm 15.4 11.5 9.3 67 3.2 ENE 20 32 11 17 1021.2 1021.1 0.0
21/10:00pm 15.7 11.8 9.4 66 3.3 ENE 20 32 11 17 1021.7 1021.6 0.0
21/09:30pm 15.9 11.7 9.8 67 3.2 ENE 22 32 12 17 1022.3 1022.2 0.0
21/09:00pm 16.2 12.4 9.8 66 3.4 E 20 30 11 16 1022.6 1022.5 0.0
21/08:30pm 16.8 12.5 9.5 62 3.8 E 22 32 12 17 1022.8 1022.7 0.0
21/08:00pm 17.4 13.6 9.8 61 4.0 E 20 32 11 17 1023.1 1023.0 0.0
21/07:30pm 18.0 13.8 9.9 59 4.3 E 22 35 12 19 1022.9 1022.8 0.0
21/07:00pm 18.9 14.3 9.7 55 4.9 E 24 35 13 19 1022.7 1022.6 0.0
21/06:30pm 19.1 15.0 10.1 56 4.8 ESE 22 32 12 17 1022.4 1022.3 0.0
21/06:00pm 19.6 14.3 10.0 54 5.2 ESE 28 39 15 21 1021.6 1021.5 0.0
21/05:30pm 20.2 15.1 10.6 54 5.2 ESE 28 33 15 18 1021.6 1021.5 0.0
21/05:00pm 20.7 16.6 11.6 56 5.1 ESE 24 30 13 16 1021.6 1021.5 0.0
21/04:30pm 21.5 17.1 11.8 54 5.5 SE 26 35 14 19 1021.9 1021.8 0.0
21/04:00pm 22.4 17.5 12.4 53 5.7 SE 30 37 16 20 1022.0 1021.9 0.0
21/03:30pm 24.2 19.9 11.9 46 7.0 SE 26 35 14 19 1022.4 1022.3 0.0
21/03:00pm 24.9 20.5 11.8 44 7.5 SE 26 35 14 19 1022.8 1022.7 0.0
21/02:30pm 26.5 21.6 4.3 24 11.2 E 19 26 10 14 1023.2 1023.1 0.0
21/02:00pm 26.4 22.6 5.9 27 10.6 E 15 28 8 15 1023.5 1023.4 0.0
21/01:30pm 26.2 20.8 4.6 25 11.0 ESE 22 32 12 17 1023.6 1023.5 0.0
21/01:00pm 25.9 20.1 4.4 25 10.8 ESE 24 35 13 19 1024.0 1023.8 0.0
21/12:30pm 25.1 19.9 5.3 28 10.1 E 22 35 12 19 1024.3 1024.1 0.0
21/12:00pm 24.6 19.9 5.9 30 9.6 ENE 20 30 11 16 1024.8 1024.6 0.0
21/11:30am 24.0 19.6 6.7 33 9.0 E 19 32 10 17 1025.6 1025.4 0.0
21/11:00am 23.3 19.1 5.7 32 8.9 ENE 17 28 9 15 1026.1 1025.9 0.0
21/10:30am 22.4 18.0 6.6 36 8.1 ENE 19 28 10 15 1026.5 1026.3 0.0
21/10:00am 21.1 17.0 7.7 42 6.9 ENE 19 33 10 18 1026.9 1026.8 0.0
21/09:30am 19.2 14.7 7.0 45 6.2 ENE 20 32 11 17 1027.2 1027.1 0.0
21/09:00am 18.7 14.4 7.8 49 5.6 NE 20 28 11 15 1027.6 1027.5 0.0
21/08:30am 16.9 12.6 7.8 55 4.6 NE 20 30 11 16 1027.9 1027.8 0.0
21/08:00am 15.6 12.0 8.4 62 3.6 NE 17 30 9 16 1028.0 1027.9 0.0
21/07:30am 14.3 9.7 8.3 67 3.0 NE 22 33 12 18 1028.1 1028.0 0.0
21/07:00am 13.1 9.1 9.0 76 2.1 NE 20 30 11 16 1028.1 1028.0 0.0
21/06:30am 11.8 7.7 8.8 82 1.5 NE 20 32 11 17 1028.2 1028.1 0.0
21/06:00am 10.7 7.2 8.6 87 1.0 NE 17 24 9 13 1028.2 1028.1 0.0
21/05:30am 9.9 6.3 8.2 89 0.8 NE 17 28 9 15 1028.1 1028.0 0.0
21/05:00am 9.5 5.8 7.8 89 0.8 NE 17 24 9 13 1028.0 1027.9 0.0
21/04:30am 9.8 6.1 7.9 88 0.9 NE 17 28 9 15 1027.7 1027.6 0.0
21/04:00am 10.0 6.0 8.3 89 0.8 NE 19 28 10 15 1027.6 1027.5 0.0
21/03:30am 9.7 6.4 8.0 89 0.8 NE 15 22 8 12 1027.7 1027.6 0.0
21/03:00am 9.3 6.7 7.6 89 0.8 NE 11 19 6 10 1028.0 1027.9 0.0
21/02:30am 9.2 6.5 7.5 89 0.8 ENE 11 17 6 9 1028.2 1028.1 0.0
21/02:00am 9.4 6.7 7.5 88 0.9 ENE 11 15 6 8 1028.5 1028.4 0.0
21/01:30am 9.9 7.3 7.8 87 1.0 ENE 11 15 6 8 1028.4 1028.3 0.0
21/01:00am 10.4 7.5 8.2 86 1.1 NE 13 20 7 11 1028.5 1028.4 0.0
21/12:30am 10.8 7.5 8.2 84 1.3 NE 15 24 8 13 1028.7 1028.6 0.0
21/12:00am 11.1 7.5 8.3 83 1.4 ENE 17 28 9 15 1028.9 1028.8 0.0
 
Date/Time
WST
Temp
°C
App
Temp
°C
Dew
Point
°C
Rel
Hum
%
Delta-T
°C
Wind Press
QNH
hPa
Press
MSL
hPa
Rain since
9am
mm
Dir  Spd
km/h
Gust
km/h
Spd
kts
Gust
kts
20/11:30pm 11.3 7.7 8.5 83 1.4 ENE 17 26 9 14 1028.7 1028.6 0.0
20/11:00pm 11.5 7.9 8.5 82 1.5 ENE 17 24 9 13 1029.2 1029.1 0.0
20/10:30pm 11.7 8.1 8.4 80 1.6 ENE 17 24 9 13 1029.3 1029.2 0.0
20/10:00pm 12.2 7.3 8.5 78 1.8 ENE 24 33 13 18 1029.3 1029.2 0.0
20/09:30pm 12.5 7.2 8.6 77 2.0 ENE 26 39 14 21 1029.2 1029.1 0.0
20/09:00pm 12.8 8.3 8.5 75 2.1 E 22 32 12 17 1029.3 1029.2 0.0
20/08:30pm 13.5 8.6 8.4 71 2.6 E 24 39 13 21 1029.4 1029.3 0.0
20/08:00pm 14.3 9.1 8.7 69 2.8 E 26 37 14 20 1029.3 1029.2 0.0
20/07:30pm 15.0 9.4 8.7 66 3.2 E 28 39 15 21 1028.9 1028.8 0.0
20/07:00pm 15.6 10.4 8.8 64 3.5 E 26 43 14 23 1028.5 1028.4 0.0
20/06:30pm 15.8 10.8 9.5 66 3.3 E 26 37 14 20 1028.0 1027.9 0.0
20/06:00pm 16.6 11.2 9.5 63 3.7 ESE 28 37 15 20 1027.9 1027.8 0.0
20/05:30pm 17.8 12.1 9.7 59 4.3 ESE 30 39 16 21 1027.5 1027.4 0.0
20/05:00pm 18.9 13.2 9.7 55 4.9 ESE 30 43 16 23 1027.3 1027.2 0.0
20/04:30pm 19.5 14.1 10.8 57 4.8 SE 30 39 16 21 1027.2 1027.1 0.0
20/04:00pm 19.4 12.2 10.4 56 4.9 ESE 39 48 21 26 1027.2 1027.1 0.0
20/03:30pm 19.9 13.9 10.9 56 4.9 SE 33 43 18 23 1027.4 1027.3 0.0
20/03:00pm 20.5 14.0 10.3 52 5.5 SE 35 44 19 24 1027.5 1027.4 0.0
20/02:30pm 21.7 15.5 9.9 47 6.4 SE 33 44 18 24 1027.5 1027.4 0.0
20/02:00pm 22.0 15.9 9.9 46 6.6 SE 32 41 17 22 1027.8 1027.7 0.0
20/01:30pm 24.1 19.1 4.5 28 9.8 ENE 20 37 11 20 1028.3 1028.2 0.0
20/01:00pm 23.4 18.3 3.9 28 9.5 E 20 35 11 19 1028.7 1028.6 0.0
20/12:30pm 23.2 18.3 5.2 31 9.1 ESE 20 32 11 17 1029.2 1029.1 0.0
20/12:00pm 22.2 17.5 6.0 35 8.2 E 20 30 11 16 1029.8 1029.7 0.0
20/11:30am 21.5 16.6 5.0 34 8.2 E 20 32 11 17 1030.1 1030.0 0.0
20/11:00am 21.1 16.6 5.9 37 7.6 NE 19 28 10 15 1030.8 1030.7 0.0
20/10:30am 20.1 15.2 7.1 43 6.7 E 22 30 12 16 1031.3 1031.1 0.0
20/10:00am 19.0 14.5 7.1 46 6.0 ENE 20 33 11 18 1031.9 1031.7 0.0
20/09:30am 17.6 13.3 6.8 49 5.4 ENE 19 28 10 15 1032.5 1032.3 0.0
20/09:00am 17.3 13.5 7.6 53 4.9 NE 17 26 9 14 1032.7 1032.5 0.0
20/08:30am 15.7 11.2 7.0 56 4.3 NE 20 30 11 16 1033.0 1032.9 0.0
20/08:00am 14.8 10.4 7.6 62 3.6 NE 20 33 11 18 1033.1 1033.0 0.0
20/07:30am 14.0 10.3 7.8 66 3.1 NE 17 28 9 15 1033.0 1032.9 0.0
20/07:00am 11.7 7.7 6.8 72 2.3 NE 17 24 9 13 1033.0 1032.9 0.0
20/06:30am 10.7 7.1 6.6 76 1.9 NE 15 24 8 13 1032.8 1032.6 0.0
20/06:00am 9.5 5.8 6.4 81 1.4 NE 15 20 8 11 1032.6 1032.4 0.0
20/05:30am 8.1 5.4 5.6 84 1.1 NE 9 17 5 9 1032.5 1032.3 0.0
20/05:00am 8.5 5.8 5.8 83 1.2 NE 9 15 5 8 1032.0 1031.8 0.0
20/04:30am 8.6 5.2 5.9 83 1.2 NE 13 19 7 10 1031.6 1031.4 0.0
20/04:00am 8.7 5.7 6.2 84 1.1 NE 11 19 6 10 1031.3 1031.1 0.0
20/03:30am 8.6 5.3 6.2 85 1.1 NE 13 24 7 13 1031.3 1031.1 0.0
20/03:00am 7.9 4.5 5.7 86 1.0 ENE 13 19 7 10 1031.2 1031.0 0.0
20/02:30am 8.0 4.5 5.6 85 1.1 ENE 13 19 7 10 1031.2 1031.0 0.0
20/02:00am 8.3 4.9 5.9 85 1.1 ENE 13 19 7 10 1031.2 1031.0 0.0
20/01:30am 8.3 5.3 5.8 84 1.1 ENE 11 17 6 9 1031.3 1031.1 0.0
20/01:00am 8.2 5.5 5.5 83 1.2 ENE 9 13 5 7 1031.6 1031.4 0.0
20/12:30am 8.8 5.8 6.1 83 1.2 E 11 17 6 9 1031.5 1031.3 0.0
20/12:00am 9.0 6.4 6.1 82 1.3 ENE 9 13 5 7 1032.0 1031.8 0.0
 
Date/Time
WST
Temp
°C
App
Temp
°C
Dew
Point
°C
Rel
Hum
%
Delta-T
°C
Wind Press
QNH
hPa
Press
MSL
hPa
Rain since
9am
mm
Dir  Spd
km/h
Gust
km/h
Spd
kts
Gust
kts
19/11:30pm 9.6 6.3 6.3 80 1.5 ENE 13 19 7 10 1032.1 1031.9 0.0
19/11:00pm 10.2 6.9 6.4 77 1.8 ENE 13 19 7 10 1031.8 1031.6 0.0
19/10:30pm 10.8 7.2 6.7 76 1.9 ENE 15 22 8 12 1031.6 1031.4 0.0
19/10:00pm 11.0 7.1 6.9 76 1.9 E 17 26 9 14 1031.7 1031.5 0.0
19/09:30pm 11.2 8.0 6.9 75 2.1 E 13 20 7 11 1031.8 1031.6 0.0
19/09:00pm 11.4 7.9 7.3 76 2.0 E 15 20 8 11 1031.8 1031.6 0.0
19/08:30pm 11.4 8.3 7.3 76 2.0 E 13 17 7 9 1031.7 1031.5 0.0
19/08:00pm 11.4 7.8 6.7 73 2.2 ESE 15 19 8 10 1031.4 1031.2 0.0
19/07:30pm 11.6 7.2 6.5 71 2.4 ESE 19 22 10 12 1030.8 1030.7 0.0
19/07:00pm 11.9 7.5 6.6 70 2.5 ESE 19 24 10 13 1030.4 1030.3 0.0
19/06:30pm 12.6 8.0 6.6 67 2.9 ESE 20 24 11 13 1030.0 1029.9 0.0
19/06:00pm 13.8 8.1 6.9 63 3.3 SE 26 35 14 19 1029.5 1029.4 0.0
19/05:30pm 14.6 8.6 6.9 60 3.8 SE 28 37 15 20 1029.2 1029.1 0.0
19/05:00pm 15.3 9.3 7.1 58 4.0 SSE 28 39 15 21 1028.8 1028.7 0.0
19/04:30pm 16.0 9.6 7.0 55 4.5 SE 30 37 16 20 1028.7 1028.6 0.0

Other Formats:

Comma delimited format used in spreadsheet applications
http://www.bom.gov.au/fwo/IDW60801/IDW60801.95638.axf

JavaScript Object Notation format (JSON) in row-major order
http://www.bom.gov.au/fwo/IDW60801/IDW60801.95638.json